createdAt,value
2022-09-23T00:01:35.546Z,101174.38
2022-09-23T00:04:03.570Z,101180.25
2022-09-23T00:06:30.098Z,101182.25
2022-09-23T00:08:56.627Z,101179.78
2022-09-23T00:11:25.225Z,101180.75
2022-09-23T00:13:53.576Z,101153.84
2022-09-23T00:16:21.995Z,101170.63
2022-09-23T00:18:48.830Z,101177.91
2022-09-23T00:21:17.520Z,101172.41
2022-09-23T00:23:44.275Z,101172.28
2022-09-23T00:26:14.296Z,101168.09
2022-09-23T00:28:41.123Z,101163.88
2022-09-23T00:31:10.477Z,101153.13
2022-09-23T00:33:37.327Z,101165.00
2022-09-23T00:36:06.682Z,101161.53
2022-09-23T00:38:34.568Z,101158.06
2022-09-23T00:41:01.151Z,101157.22
2022-09-23T00:43:38.831Z,101153.75
2022-09-23T00:46:07.780Z,101149.44
2022-09-23T00:48:35.932Z,101152.91
2022-09-23T00:51:03.030Z,101153.84
2022-09-23T00:53:29.671Z,101148.59
2022-09-23T00:56:01.804Z,101151.91
2022-09-23T00:58:34.087Z,101123.59
2022-09-23T01:01:02.241Z,101139.81
2022-09-23T01:03:28.950Z,101123.13
2022-09-23T01:05:56.700Z,101133.72
2022-09-23T01:08:24.387Z,101125.97
2022-09-23T01:11:00.225Z,101125.13
2022-09-23T01:13:35.669Z,101125.84
2022-09-23T01:16:08.413Z,101118.94
2022-09-23T01:18:42.950Z,101108.06
2022-09-23T01:21:23.383Z,101125.84
2022-09-23T01:24:21.442Z,101107.16
2022-09-23T01:27:14.540Z,101118.00
2022-09-23T01:30:03.423Z,101089.34
2022-09-23T01:32:39.698Z,101109.19
2022-09-23T01:35:12.898Z,101106.56
2022-09-23T01:37:48.069Z,101099.00
2022-09-23T01:40:20.667Z,101073.72
2022-09-23T01:42:53.823Z,101101.16
2022-09-23T01:45:28.786Z,101103.78
2022-09-23T01:48:02.216Z,101104.63
2022-09-23T01:50:31.980Z,101095.53
2022-09-23T01:53:04.708Z,101104.72
2022-09-23T01:55:35.263Z,101106.66
2022-09-23T01:58:07.235Z,101110.25
2022-09-23T02:00:35.364Z,101111.53
2022-09-23T02:03:10.827Z,101115.84
2022-09-23T02:05:41.170Z,101119.13
2022-09-23T02:08:12.274Z,101098.91
2022-09-23T02:10:44.377Z,101111.25
2022-09-23T02:13:18.201Z,101118.38
2022-09-23T02:15:50.415Z,101102.00
2022-09-23T02:18:22.294Z,101095.63
2022-09-23T02:20:50.880Z,101101.59
2022-09-23T02:23:22.946Z,101091.75
2022-09-23T02:25:57.970Z,101102.66
2022-09-23T02:28:32.384Z,101100.97
2022-09-23T02:31:08.169Z,101095.72
2022-09-23T02:33:43.823Z,101097.56
2022-09-23T02:36:18.903Z,101092.38
2022-09-23T02:38:49.586Z,101090.66
2022-09-23T02:41:25.049Z,101095.28
2022-09-23T02:43:57.190Z,101095.28
2022-09-23T02:46:23.917Z,101073.38
2022-09-23T02:48:55.218Z,101081.91
2022-09-23T02:51:22.189Z,101092.97
2022-09-23T02:53:48.748Z,101086.97
2022-09-23T02:56:17.886Z,101086.13
2022-09-23T02:58:45.165Z,101079.09
2022-09-23T03:01:24.827Z,101082.56
2022-09-23T03:04:04.401Z,101068.16
2022-09-23T03:06:37.351Z,101070.03
2022-09-23T03:09:08.539Z,101065.72
2022-09-23T03:11:39.479Z,101040.34
2022-09-23T03:14:15.864Z,101063.38
2022-09-23T03:16:47.564Z,101060.94
2022-09-23T03:19:29.041Z,101061.94
2022-09-23T03:22:02.178Z,101056.91
2022-09-23T03:24:30.933Z,101056.91
2022-09-23T03:27:00.602Z,101063.00
2022-09-23T03:29:28.239Z,101051.75
2022-09-23T03:31:56.632Z,101034.16
2022-09-23T03:34:28.159Z,101049.41
2022-09-23T03:36:58.519Z,101046.81
2022-09-23T03:39:32.585Z,101046.81
2022-09-23T03:42:03.351Z,101045.09
2022-09-23T03:44:33.646Z,101047.06
2022-09-23T03:47:01.680Z,101042.69
2022-09-23T03:49:35.015Z,101038.63
2022-09-23T03:52:02.062Z,101048.94
2022-09-23T03:54:28.598Z,101030.22
2022-09-23T03:56:55.652Z,101040.25
2022-09-23T03:59:22.318Z,101005.50
2022-09-23T04:01:48.983Z,101031.63
2022-09-23T04:04:15.870Z,101030.97
2022-09-23T04:06:43.968Z,101030.22
2022-09-23T04:09:10.782Z,101034.72
2022-09-23T04:11:37.488Z,101034.88
2022-09-23T04:14:04.252Z,101034.72
2022-09-23T04:16:31.121Z,101028.16
2022-09-23T04:18:57.895Z,100995.28
2022-09-23T04:21:24.467Z,101030.75
2022-09-23T04:23:52.539Z,101005.31
2022-09-23T04:26:19.152Z,101024.19
2022-09-23T04:28:45.661Z,101028.44
2022-09-23T04:31:12.272Z,101018.66
2022-09-23T04:33:38.895Z,101017.34
2022-09-23T04:36:05.892Z,101032.06
2022-09-23T04:38:32.669Z,101008.44
2022-09-23T04:41:00.643Z,101005.00
2022-09-23T04:43:27.303Z,101017.72
2022-09-23T04:46:00.446Z,101015.03
2022-09-23T04:48:27.757Z,101000.88
2022-09-23T04:50:54.321Z,100984.59
2022-09-23T04:53:20.909Z,101005.84
2022-09-23T04:55:47.497Z,101011.16
2022-09-23T04:58:15.423Z,101007.97
2022-09-23T05:00:41.955Z,101002.84
2022-09-23T05:03:08.529Z,100970.72
2022-09-23T05:05:35.057Z,100972.75
2022-09-23T05:08:02.080Z,100998.88
2022-09-23T05:10:28.566Z,101009.50
2022-09-23T05:12:57.530Z,101007.81
2022-09-23T05:15:25.406Z,100999.91
2022-09-23T05:17:51.986Z,100963.63
2022-09-23T05:20:18.468Z,101014.25
2022-09-23T05:22:45.067Z,101011.81
2022-09-23T05:25:11.569Z,101015.19
2022-09-23T05:27:38.249Z,101004.72
2022-09-23T05:30:05.850Z,101005.56
2022-09-23T05:32:33.810Z,101009.03
2022-09-23T05:35:00.359Z,100984.75
2022-09-23T05:37:26.977Z,100993.28
2022-09-23T05:39:53.464Z,101008.19
2022-09-23T05:42:20.029Z,101008.19
2022-09-23T05:44:46.598Z,101003.78
2022-09-23T05:47:13.241Z,100989.00
2022-09-23T05:49:58.514Z,101000.44
2022-09-23T05:52:26.373Z,100997.06
2022-09-23T05:54:52.950Z,100992.41
2022-09-23T05:57:19.567Z,100987.44
2022-09-23T05:59:46.073Z,100998.22
2022-09-23T06:02:12.825Z,101003.34
2022-09-23T06:04:40.767Z,100998.88
2022-09-23T06:07:07.369Z,100998.78
2022-09-23T06:09:36.557Z,101001.72
2022-09-23T06:12:04.298Z,100999.94
2022-09-23T06:14:30.878Z,101005.56
2022-09-23T06:16:57.498Z,101008.84
2022-09-23T06:19:24.178Z,101006.88
2022-09-23T06:21:52.207Z,101005.31
2022-09-23T06:24:21.520Z,101005.72
2022-09-23T06:26:50.490Z,101004.59
2022-09-23T06:29:17.020Z,101003.41
2022-09-23T06:31:43.833Z,101004.53
2022-09-23T06:34:13.126Z,101002.38
2022-09-23T06:36:44.447Z,100996.09
2022-09-23T06:39:14.082Z,101006.03
2022-09-23T06:41:40.623Z,101010.81
2022-09-23T06:44:11.695Z,100995.81
2022-09-23T06:46:38.429Z,100999.41
2022-09-23T06:49:05.078Z,100998.75
2022-09-23T06:51:31.681Z,101013.41
2022-09-23T06:53:58.201Z,101002.25
2022-09-23T06:56:26.472Z,101005.84
2022-09-23T06:58:53.112Z,101005.38
2022-09-23T07:01:19.910Z,100991.31
2022-09-23T07:03:47.611Z,101002.84
2022-09-23T07:06:14.623Z,101007.59
2022-09-23T07:08:43.329Z,101011.19
2022-09-23T07:11:10.592Z,101009.63
2022-09-23T07:13:39.273Z,101005.56
2022-09-23T07:16:05.892Z,101010.31
2022-09-23T07:18:36.633Z,101014.16
2022-09-23T07:21:08.816Z,101011.25
2022-09-23T07:23:35.701Z,101018.41
2022-09-23T07:26:02.176Z,101014.09
2022-09-23T07:28:28.696Z,101014.72
2022-09-23T07:31:00.452Z,101012.72
2022-09-23T07:33:32.081Z,101016.28
2022-09-23T07:35:59.420Z,101007.50
2022-09-23T07:38:25.962Z,101020.97
2022-09-23T07:40:52.608Z,101007.78
2022-09-23T07:43:19.166Z,101004.50
2022-09-23T07:45:45.722Z,101011.41
2022-09-23T07:48:13.595Z,101006.34
2022-09-23T07:50:40.587Z,101006.03
2022-09-23T07:53:07.103Z,100989.63
2022-09-23T07:55:34.840Z,100992.31
2022-09-23T07:58:01.454Z,100959.63
2022-09-23T08:00:28.048Z,101008.63
2022-09-23T08:02:54.602Z,101007.19
2022-09-23T08:05:22.690Z,101010.53
2022-09-23T08:07:49.250Z,101006.66
2022-09-23T08:10:15.899Z,100998.94
2022-09-23T08:12:42.414Z,101002.63
2022-09-23T08:15:09.705Z,100997.69
2022-09-23T08:17:36.238Z,100996.28
2022-09-23T08:20:03.207Z,100997.88
2022-09-23T08:22:31.059Z,100985.25
2022-09-23T08:24:57.632Z,100990.91
2022-09-23T08:27:24.179Z,100975.63
2022-09-23T08:29:50.770Z,100979.66
2022-09-23T08:32:17.266Z,100995.00
2022-09-23T08:34:43.909Z,100984.13
2022-09-23T08:37:10.540Z,100991.66
2022-09-23T08:39:38.443Z,100977.22
2022-09-23T08:42:17.560Z,100978.28
2022-09-23T08:44:49.199Z,100957.81
2022-09-23T08:47:21.288Z,100974.47
2022-09-23T08:49:57.044Z,100971.97
2022-09-23T08:52:32.601Z,100972.19
2022-09-23T08:55:01.531Z,100980.16
2022-09-23T08:57:38.673Z,100974.88
2022-09-23T09:00:06.409Z,100977.28
2022-09-23T09:02:35.129Z,100942.56
2022-09-23T09:05:06.004Z,100968.41
2022-09-23T09:07:37.294Z,100966.31
2022-09-23T09:10:10.407Z,100962.78
2022-09-23T09:12:42.002Z,100959.97
2022-09-23T09:15:13.244Z,100914.91
2022-09-23T09:17:48.595Z,100955.75
2022-09-23T09:20:38.416Z,100957.06
2022-09-23T09:23:15.393Z,100961.13
2022-09-23T09:25:45.779Z,100967.50
2022-09-23T09:28:23.633Z,100962.31
2022-09-23T09:30:55.468Z,100959.84
2022-09-23T09:33:27.561Z,100955.53
2022-09-23T09:36:07.329Z,100946.56
2022-09-23T09:38:34.249Z,100949.78
2022-09-23T09:41:12.259Z,100945.44
2022-09-23T09:43:44.023Z,100947.97
2022-09-23T09:49:42.583Z,100932.47
2022-09-23T09:52:21.921Z,100931.81
2022-09-23T09:54:49.365Z,100932.53
2022-09-23T09:57:25.959Z,100939.03
2022-09-23T09:59:52.617Z,100937.06
2022-09-23T10:02:27.734Z,100942.56
2022-09-23T10:04:58.544Z,100938.38
2022-09-23T10:07:27.256Z,100918.88
2022-09-23T10:09:55.768Z,100909.34
2022-09-23T10:12:26.666Z,100925.84
2022-09-23T10:14:56.543Z,100921.59
2022-09-23T10:17:26.862Z,100901.75
2022-09-23T10:19:56.954Z,100916.06
2022-09-23T10:22:25.804Z,100916.56
2022-09-23T10:24:54.381Z,100917.19
2022-09-23T10:27:32.994Z,100913.81
2022-09-23T10:30:02.087Z,100913.63
2022-09-23T10:32:31.457Z,100917.59
2022-09-23T10:35:01.952Z,100911.00
2022-09-23T10:37:38.014Z,100913.94
2022-09-23T10:40:17.136Z,100915.50
2022-09-23T10:42:57.361Z,100881.66
2022-09-23T10:45:27.043Z,100891.69
2022-09-23T10:48:03.123Z,100911.56
2022-09-23T10:50:37.687Z,100911.00
2022-09-23T10:53:12.569Z,100904.75
2022-09-23T10:55:52.369Z,100912.63
2022-09-23T10:59:00.804Z,100912.28
2022-09-23T11:01:38.661Z,100904.25
2022-09-23T11:04:35.444Z,100907.13
2022-09-23T11:07:17.802Z,100900.88
2022-09-23T11:10:02.167Z,100897.38
2022-09-23T11:12:39.806Z,100897.06
2022-09-23T11:15:26.362Z,100882.75
2022-09-23T11:18:20.363Z,100878.97
2022-09-23T11:20:59.301Z,100879.66
2022-09-23T11:23:40.728Z,100878.25
2022-09-23T11:26:19.853Z,100830.59
2022-09-23T11:29:08.467Z,100870.44
2022-09-23T11:31:48.519Z,100867.41
2022-09-23T11:34:32.667Z,100867.25
2022-09-23T11:37:03.160Z,100872.75
2022-09-23T11:39:35.304Z,100863.09
2022-09-23T11:42:04.768Z,100860.41
2022-09-23T11:44:37.255Z,100856.44
2022-09-23T11:47:09.801Z,100858.78
2022-09-23T11:49:40.237Z,100853.09
2022-09-23T11:52:13.145Z,100849.06
2022-09-23T11:54:46.566Z,100835.47
2022-09-23T11:57:26.977Z,100810.28
2022-09-23T12:00:00.324Z,100850.50
2022-09-23T12:02:33.404Z,100851.75
2022-09-23T12:05:05.802Z,100850.72
2022-09-23T12:07:44.039Z,100850.06
2022-09-23T12:10:11.758Z,100846.31
2022-09-23T12:12:44.566Z,100836.81
2022-09-23T12:15:22.746Z,100819.84
2022-09-23T12:18:17.450Z,100833.38
2022-09-23T12:21:00.790Z,100834.06
2022-09-23T12:23:46.102Z,100809.84
2022-09-23T12:26:17.153Z,100816.63
2022-09-23T12:28:45.907Z,100825.94
2022-09-23T12:31:17.299Z,100822.63
2022-09-23T12:33:52.198Z,100788.03
2022-09-23T12:36:26.355Z,100814.13
2022-09-23T12:38:57.974Z,100807.09
2022-09-23T12:41:29.055Z,100804.38
2022-09-23T12:44:00.336Z,100810.53
2022-09-23T12:46:27.785Z,100802.88
2022-09-23T12:49:04.576Z,100811.56
2022-09-23T12:51:32.485Z,100810.78
2022-09-23T12:54:20.262Z,100796.53
2022-09-23T12:57:09.321Z,100804.38
2022-09-23T12:59:56.000Z,100801.72
2022-09-23T13:02:35.807Z,100801.38
2022-09-23T13:05:19.963Z,100794.16
2022-09-23T13:07:48.667Z,100775.47
2022-09-23T13:10:22.589Z,100790.22
2022-09-23T13:12:50.813Z,100772.41
2022-09-23T13:15:26.437Z,100786.31
2022-09-23T13:17:53.052Z,100787.75
2022-09-23T13:20:37.270Z,100775.53
2022-09-23T13:23:21.326Z,100777.34
2022-09-23T13:25:48.988Z,100779.81
2022-09-23T13:28:26.048Z,100774.41
2022-09-23T13:30:53.063Z,100774.00
2022-09-23T13:33:27.173Z,100772.13
2022-09-23T13:35:59.640Z,100769.44
2022-09-23T13:38:29.022Z,100770.00
2022-09-23T13:40:58.203Z,100771.03
2022-09-23T13:43:29.243Z,100730.44
2022-09-23T13:45:55.884Z,100770.78
2022-09-23T13:48:25.402Z,100763.50
2022-09-23T13:50:55.483Z,100767.63
2022-09-23T13:53:25.761Z,100764.50
2022-09-23T13:56:04.667Z,100768.00
2022-09-23T13:58:32.727Z,100757.25
2022-09-23T14:00:59.671Z,100748.09
2022-09-23T14:03:33.669Z,100737.09
2022-09-23T14:06:07.413Z,100744.81
2022-09-23T14:08:33.949Z,100740.47
2022-09-23T14:11:00.801Z,100735.50
2022-09-23T14:13:29.447Z,100735.47
2022-09-23T14:15:58.549Z,100733.59
2022-09-23T14:18:36.294Z,100732.31
2022-09-23T14:21:04.847Z,100733.16
2022-09-23T14:23:31.471Z,100740.56
2022-09-23T14:25:59.006Z,100731.25
2022-09-23T14:28:27.274Z,100732.69
2022-09-23T14:30:55.714Z,100725.25
2022-09-23T14:33:26.479Z,100721.69
2022-09-23T14:35:56.489Z,100717.97
2022-09-23T14:38:29.256Z,100720.41
2022-09-23T14:40:58.208Z,100725.16
2022-09-23T14:43:27.612Z,100714.16
2022-09-23T14:45:55.949Z,100714.75
2022-09-23T14:48:25.378Z,100701.53
2022-09-23T14:50:57.030Z,100693.81
2022-09-23T14:53:37.103Z,100705.78
2022-09-23T14:56:16.180Z,100710.09
2022-09-23T14:58:51.725Z,100706.97
2022-09-23T15:01:26.439Z,100705.88
2022-09-23T15:03:53.540Z,100705.63
2022-09-23T15:06:22.603Z,100679.09
2022-09-23T15:08:51.703Z,100701.25
2022-09-23T15:11:19.610Z,100697.31
2022-09-23T15:13:49.868Z,100691.06
2022-09-23T15:16:24.079Z,100692.69
2022-09-23T15:18:54.529Z,100675.63
2022-09-23T15:21:21.583Z,100647.56
2022-09-23T15:23:51.953Z,100686.94
2022-09-23T15:26:21.053Z,100674.63
2022-09-23T15:28:48.554Z,100680.63
2022-09-23T15:31:16.630Z,100685.06
2022-09-23T15:33:43.825Z,100666.47
2022-09-23T15:36:16.392Z,100688.63
2022-09-23T15:38:43.723Z,100683.81
2022-09-23T15:41:12.247Z,100685.22
2022-09-23T15:43:39.393Z,100675.13
2022-09-23T15:46:08.115Z,100691.44
2022-09-23T15:48:38.621Z,100683.69
2022-09-23T15:51:07.417Z,100703.28
2022-09-23T15:53:35.415Z,100704.03
2022-09-23T15:56:02.158Z,100703.66
2022-09-23T15:58:30.152Z,100704.69
2022-09-23T16:00:57.468Z,100692.63
2022-09-23T16:03:24.715Z,100703.88
2022-09-23T16:05:51.769Z,100707.47
2022-09-23T16:08:18.310Z,100706.09
2022-09-23T16:10:44.842Z,100695.84
2022-09-23T16:13:13.553Z,100704.88
2022-09-23T16:15:41.805Z,100704.94
2022-09-23T16:18:10.037Z,100696.16
2022-09-23T16:20:39.460Z,100700.09
2022-09-23T16:23:08.518Z,100708.56
2022-09-23T16:25:36.683Z,100714.63
2022-09-23T16:28:04.440Z,100706.50
2022-09-23T16:30:32.564Z,100704.00
2022-09-23T16:33:00.510Z,100700.66
2022-09-23T16:35:28.639Z,100711.00
2022-09-23T16:37:55.296Z,100709.66
2022-09-23T16:40:23.175Z,100703.19
2022-09-23T16:42:51.326Z,100697.66
2022-09-23T16:45:20.822Z,100709.03
2022-09-23T16:47:49.167Z,100698.75
2022-09-23T16:50:18.661Z,100718.97
2022-09-23T16:52:45.227Z,100710.00
2022-09-23T16:55:13.768Z,100715.03
2022-09-23T16:57:41.858Z,100715.88
2022-09-23T17:00:13.284Z,100715.13
2022-09-23T17:02:40.079Z,100718.31
2022-09-23T17:05:07.245Z,100725.84
2022-09-23T17:07:35.136Z,100723.53
2022-09-23T17:10:01.681Z,100723.75
2022-09-23T17:12:30.778Z,100724.56
2022-09-23T17:14:57.468Z,100720.06
2022-09-23T17:17:24.018Z,100674.03
2022-09-23T17:19:50.517Z,100703.47
2022-09-23T17:22:17.089Z,100701.47
2022-09-23T17:24:45.128Z,100703.13
2022-09-23T17:27:11.770Z,100690.84
2022-09-23T17:29:38.267Z,100604.44
2022-09-23T17:32:04.897Z,100674.03
2022-09-23T17:34:31.393Z,100695.81
2022-09-23T17:36:57.981Z,100677.69
2022-09-23T17:39:24.472Z,100691.00
2022-09-23T17:41:52.450Z,100682.94
2022-09-23T17:44:19.013Z,100690.94
2022-09-23T17:46:45.565Z,100637.16
2022-09-23T17:49:12.078Z,100690.28
2022-09-23T17:51:38.629Z,100694.56
2022-09-23T17:54:05.213Z,100689.06
2022-09-23T17:56:31.775Z,100678.13
2022-09-23T17:59:01.672Z,100675.75
2022-09-23T18:01:28.891Z,100667.91
2022-09-23T18:03:57.079Z,100685.38
2022-09-23T18:06:25.357Z,100684.38
2022-09-23T18:08:52.488Z,100690.63
2022-09-23T18:11:21.638Z,100689.59
2022-09-23T18:13:50.582Z,100667.78
2022-09-23T18:16:19.347Z,100677.28
2022-09-23T18:18:50.113Z,100682.41
2022-09-23T18:21:16.772Z,100684.88
2022-09-23T18:23:43.278Z,100679.97
2022-09-23T18:26:13.913Z,100683.28
2022-09-23T18:28:40.402Z,100686.16
2022-09-23T18:31:06.888Z,100696.84
2022-09-23T18:33:34.725Z,100692.31
2022-09-23T18:36:01.750Z,100689.75
2022-09-23T18:38:28.273Z,100700.06
2022-09-23T18:40:56.966Z,100703.22
2022-09-23T18:43:25.859Z,100677.81
2022-09-23T18:45:56.889Z,100703.44
2022-09-23T18:48:23.463Z,100706.72
2022-09-23T18:50:51.374Z,100704.66
2022-09-23T18:53:17.886Z,100705.97
2022-09-23T18:55:44.403Z,100701.78
2022-09-23T18:58:10.889Z,100698.84
2022-09-23T19:00:37.563Z,100700.97
2022-09-23T19:03:04.370Z,100648.25
2022-09-23T19:05:33.290Z,100701.66
2022-09-23T19:08:01.747Z,100705.22
2022-09-23T19:10:28.405Z,100696.66
2022-09-23T19:12:54.900Z,100702.56
2022-09-23T19:15:21.394Z,100698.06
2022-09-23T19:17:47.894Z,100707.38
2022-09-23T19:20:14.466Z,100709.31
2022-09-23T19:22:45.625Z,100669.84
2022-09-23T19:25:13.665Z,100686.50
2022-09-23T19:27:40.173Z,100688.78
2022-09-23T19:30:08.191Z,100643.72
2022-09-23T19:32:34.693Z,100673.69
2022-09-23T19:35:01.276Z,100682.44
2022-09-23T19:37:27.802Z,100699.19
2022-09-23T19:39:54.345Z,100698.13
2022-09-23T19:42:22.188Z,100702.03
2022-09-23T19:44:48.810Z,100699.97
2022-09-23T19:47:15.401Z,100702.75
2022-09-23T19:49:42.061Z,100694.13
2022-09-23T19:52:08.570Z,100699.84
2022-09-23T19:54:35.115Z,100699.19
2022-09-23T19:57:01.649Z,100695.84
2022-09-23T19:59:29.582Z,100641.91
2022-09-23T20:01:56.205Z,100686.81
2022-09-23T20:04:22.837Z,100684.31
2022-09-23T20:06:49.369Z,100681.13
2022-09-23T20:09:15.940Z,100687.97
2022-09-23T20:11:42.544Z,100664.06
2022-09-23T20:14:10.118Z,100679.25
2022-09-23T20:16:38.245Z,100677.03
2022-09-23T20:19:05.211Z,100661.88
2022-09-23T20:21:31.980Z,100681.69
2022-09-23T20:23:58.751Z,100671.38
2022-09-23T20:26:25.361Z,100671.66
2022-09-23T20:28:52.169Z,100668.91
2022-09-23T20:31:19.913Z,100668.34
2022-09-23T20:33:51.234Z,100677.38
2022-09-23T20:36:18.072Z,100680.31
2022-09-23T20:38:44.615Z,100680.06
2022-09-23T20:41:11.349Z,100660.28
2022-09-23T20:43:37.893Z,100678.13
2022-09-23T20:46:05.321Z,100677.72
2022-09-23T20:48:31.924Z,100658.69
2022-09-23T20:51:04.091Z,100673.97
2022-09-23T20:53:31.426Z,100666.72
2022-09-23T20:55:59.003Z,100669.25
2022-09-23T20:58:26.572Z,100641.25
2022-09-23T21:00:53.383Z,100663.25
2022-09-23T21:03:19.986Z,100668.13
2022-09-23T21:05:46.532Z,100651.00
2022-09-23T21:08:15.670Z,100672.19
2022-09-23T21:10:42.189Z,100672.59
2022-09-23T21:13:08.770Z,100670.22
2022-09-23T21:15:35.520Z,100668.69
2022-09-23T21:18:02.078Z,100674.38
2022-09-23T21:20:28.578Z,100674.25
2022-09-23T21:22:55.099Z,100672.72
2022-09-23T21:25:27.928Z,100653.22
2022-09-23T21:27:54.850Z,100661.88
2022-09-23T21:30:21.333Z,100662.13
2022-09-23T21:32:47.903Z,100667.72
2022-09-23T21:35:14.543Z,100661.19
2022-09-23T21:37:41.302Z,100653.78
2022-09-23T21:40:08.872Z,100645.56
2022-09-23T21:42:36.874Z,100671.19
2022-09-23T21:45:03.670Z,100668.09
2022-09-23T21:47:30.308Z,100676.03
2022-09-23T21:49:56.811Z,100679.09
2022-09-23T21:52:23.462Z,100647.06
2022-09-23T21:54:49.971Z,100662.50
2022-09-23T21:57:16.568Z,100675.47
2022-09-23T21:59:44.408Z,100669.91
2022-09-23T22:02:10.952Z,100659.88
2022-09-23T22:04:37.566Z,100659.28
2022-09-23T22:07:04.146Z,100673.63
2022-09-23T22:09:30.658Z,100667.63
2022-09-23T22:11:57.285Z,100678.75
2022-09-23T22:14:24.638Z,100676.81
2022-09-23T22:16:53.591Z,100681.09
2022-09-23T22:19:20.128Z,100674.28
2022-09-23T22:21:46.737Z,100679.97
2022-09-23T22:24:13.310Z,100662.28
2022-09-23T22:26:42.395Z,100671.34
2022-09-23T22:29:10.771Z,100644.13
2022-09-23T22:31:37.438Z,100669.47
2022-09-23T22:34:05.439Z,100657.22
2022-09-23T22:36:32.068Z,100667.25
2022-09-23T22:38:59.392Z,100670.97
2022-09-23T22:41:26.081Z,100672.34
2022-09-23T22:43:52.652Z,100661.78
2022-09-23T22:46:19.418Z,100663.88
2022-09-23T22:48:45.967Z,100667.03
2022-09-23T22:51:13.856Z,100668.25
2022-09-23T22:53:40.355Z,100653.91
2022-09-23T22:56:07.138Z,100646.38
2022-09-23T22:58:33.644Z,100662.97
2022-09-23T23:01:00.237Z,100653.78
2022-09-23T23:03:26.846Z,100658.34
2022-09-23T23:05:53.894Z,100654.19
2022-09-23T23:08:21.796Z,100526.03
2022-09-23T23:10:48.354Z,100648.06
2022-09-23T23:13:14.837Z,100655.13
2022-09-23T23:15:41.818Z,100653.75
2022-09-23T23:18:08.417Z,100624.47
2022-09-23T23:20:34.954Z,100644.03
2022-09-23T23:23:01.508Z,100643.44
2022-09-23T23:25:29.598Z,100599.94
2022-09-23T23:27:56.432Z,100610.66
2022-09-23T23:30:23.612Z,100613.59
2022-09-23T23:32:50.328Z,100637.81
2022-09-23T23:35:17.019Z,100639.16
2022-09-23T23:37:43.531Z,100620.47
2022-09-23T23:40:10.859Z,100641.38
2022-09-23T23:42:39.195Z,100644.53
2022-09-23T23:45:06.945Z,100643.25
2022-09-23T23:47:33.559Z,100648.75
2022-09-23T23:50:00.092Z,100639.31
2022-09-23T23:52:26.585Z,100641.25
2022-09-23T23:54:53.189Z,100635.75
2022-09-23T23:57:19.718Z,100643.44
2022-09-23T23:59:47.654Z,100628.88
